Time;durP1;ratioP1;P1;durP2;ratioP2;P2;SDS_P1;SDS_P2;PMS_P1;PMS_P2;Temp;Humidity;BMP_temperature;BMP_pressure;BME280_temperature;BME280_humidity;BME280_pressure;Samples;Min_cycle;Max_cycle;Signal;HPM_P1;HPM_P2
2023/04/19 00:00:40;;;;;;;18.85;16.02;;;10.60;27.60;;;;;;5058229;28;20051;-64
2023/04/19 00:03:07;;;;;;;19.83;15.85;;;10.60;24.90;;;;;;5058232;28;20017;-64
2023/04/19 00:05:33;;;;;;;19.55;15.90;;;10.50;27.40;;;;;;5040860;28;20100;-64
2023/04/19 00:07:59;;;;;;;18.40;15.80;;;10.50;28.50;;;;;;5058127;28;20116;-64
2023/04/19 00:10:25;;;;;;;20.55;16.77;;;10.50;26.70;;;;;;5007947;28;20068;-64
2023/04/19 00:12:51;;;;;;;20.25;16.15;;;10.50;28.40;;;;;;5040892;28;20098;-64
2023/04/19 00:15:17;;;;;;;18.25;16.23;;;10.40;28.80;;;;;;5040581;28;20045;-64
2023/04/19 00:17:43;;;;;;;19.25;16.30;;;10.40;30.50;;;;;;5058061;28;20040;-64
2023/04/19 00:20:12;;;;;;;21.33;17.55;;;10.40;31.00;;;;;;5040741;28;20048;-64
2023/04/19 00:22:39;;;;;;;20.20;17.23;;;10.30;32.80;;;;;;5040454;28;20335;-65
2023/04/19 00:25:05;;;;;;;19.08;15.88;;;10.30;36.40;;;;;;5040432;28;20024;-64
2023/04/19 00:27:31;;;;;;;22.63;16.95;;;10.40;35.20;;;;;;5024015;28;20298;-65
2023/04/19 00:29:58;;;;;;;19.17;16.30;;;10.20;38.10;;;;;;5040623;28;20144;-65
2023/04/19 00:32:24;;;;;;;17.85;15.88;;;10.10;41.30;;;;;;5040297;28;20457;-65
2023/04/19 00:34:50;;;;;;;19.05;16.63;;;10.10;45.10;;;;;;5023983;28;20033;-64
2023/04/19 00:37:16;;;;;;;19.85;17.20;;;10.10;44.80;;;;;;5040172;28;20033;-65
2023/04/19 00:39:42;;;;;;;18.63;16.25;;;10.20;43.40;;;;;;5040280;28;20170;-65
2023/04/19 00:42:07;;;;;;;22.08;17.75;;;10.10;41.00;;;;;;5056654;28;20120;-65
2023/04/19 00:44:34;;;;;;;23.52;17.08;;;10.20;41.20;;;;;;5057513;28;20115;-65
2023/04/19 00:47:00;;;;;;;20.73;16.70;;;10.10;42.50;;;;;;5040215;28;20036;-64
2023/04/19 00:49:26;;;;;;;19.63;16.75;;;10.10;42.50;;;;;;5039960;28;20036;-64
2023/04/19 00:51:53;;;;;;;20.95;17.38;;;10.10;45.70;;;;;;5040037;28;20033;-63
2023/04/19 00:54:19;;;;;;;20.52;16.67;;;10.00;43.70;;;;;;5040105;28;20091;-63
2023/04/19 00:56:48;;;;;;;20.33;16.90;;;10.10;47.40;;;;;;5023816;28;20033;-63
2023/04/19 00:59:16;;;;;;;22.30;17.60;;;10.00;46.30;;;;;;5040786;28;20053;-64
2023/04/19 01:01:42;;;;;;;20.50;17.17;;;10.00;45.30;;;;;;5040426;28;20063;-64
2023/04/19 01:04:08;;;;;;;19.90;16.85;;;10.00;45.80;;;;;;5057125;28;20024;-64
2023/04/19 01:06:35;;;;;;;21.48;17.25;;;9.90;49.30;;;;;;5039704;28;20124;-63
2023/04/19 01:09:01;;;;;;;21.77;18.02;;;9.90;51.70;;;;;;5039697;28;20033;-65
2023/04/19 01:11:28;;;;;;;22.75;18.08;;;9.70;55.30;;;;;;5056990;28;20039;-64
2023/04/19 01:13:55;;;;;;;21.63;17.80;;;9.80;55.70;;;;;;5039862;28;20040;-64
2023/04/19 01:16:21;;;;;;;19.98;17.85;;;9.80;54.10;;;;;;5022944;28;20136;-64
2023/04/19 01:18:50;;;;;;;21.95;17.90;;;9.80;54.90;;;;;;5039992;28;20041;-64
2023/04/19 01:21:17;;;;;;;23.23;18.33;;;9.80;54.10;;;;;;5023040;28;20333;-64
2023/04/19 01:23:43;;;;;;;22.13;18.35;;;9.90;52.50;;;;;;5023016;28;20028;-64
2023/04/19 01:26:09;;;;;;;22.38;18.50;;;9.90;52.00;;;;;;5023029;28;20041;-64
2023/04/19 01:28:35;;;;;;;20.83;17.27;;;9.80;54.20;;;;;;5039595;28;20029;-64
2023/04/19 01:31:01;;;;;;;22.33;18.52;;;9.90;53.70;;;;;;5056869;28;20343;-64
2023/04/19 01:33:27;;;;;;;21.30;17.65;;;9.90;55.50;;;;;;5022999;28;20107;-64
2023/04/19 01:35:53;;;;;;;20.95;17.52;;;9.90;54.10;;;;;;5039570;28;20044;-64
2023/04/19 01:38:19;;;;;;;19.88;17.50;;;9.90;54.30;;;;;;5039290;28;20067;-64
2023/04/19 01:40:45;;;;;;;20.42;17.67;;;9.90;56.00;;;;;;5039488;28;20390;-63
2023/04/19 01:43:13;;;;;;;21.23;18.15;;;9.90;57.10;;;;;;5023031;28;20033;-64
2023/04/19 01:45:38;;;;;;;21.00;17.48;;;10.00;55.70;;;;;;5056783;28;20032;-63
2023/04/19 01:48:04;;;;;;;22.52;18.48;;;10.20;52.90;;;;;;5039335;28;20029;-63
2023/04/19 01:50:33;;;;;;;24.85;18.08;;;10.20;49.00;;;;;;5039826;28;20341;-63
2023/04/19 01:53:00;;;;;;;20.10;17.42;;;10.30;44.70;;;;;;5039388;28;20033;-64
2023/04/19 01:55:26;;;;;;;20.27;17.42;;;10.40;44.70;;;;;;5043317;28;20313;-63
2023/04/19 01:57:53;;;;;;;20.92;17.67;;;10.50;40.60;;;;;;5010342;28;20397;-63
2023/04/19 02:00:19;;;;;;;19.52;17.05;;;10.60;37.70;;;;;;5026700;28;20345;-64
2023/04/19 02:02:46;;;;;;;22.05;17.77;;;10.60;38.10;;;;;;5060365;28;20378;-65
2023/04/19 02:05:12;;;;;;;20.75;17.15;;;10.70;35.20;;;;;;5060486;28;20071;-64
2023/04/19 02:07:38;;;;;;;22.05;17.35;;;10.60;37.10;;;;;;5059608;28;20321;-64
2023/04/19 02:10:05;;;;;;;21.45;17.15;;;10.60;37.70;;;;;;5060569;28;20040;-64
2023/04/19 02:12:33;;;;;;;19.30;16.88;;;10.60;38.20;;;;;;5043086;28;20414;-64
2023/04/19 02:15:01;;;;;;;21.70;17.77;;;10.60;41.10;;;;;;5042850;28;20044;-64
2023/04/19 02:17:30;;;;;;;21.65;17.25;;;10.50;44.40;;;;;;5060262;28;20131;-64
2023/04/19 02:19:57;;;;;;;19.75;17.55;;;10.40;48.20;;;;;;5026667;28;20041;-64
2023/04/19 02:22:23;;;;;;;19.88;16.92;;;10.50;48.50;;;;;;5026466;28;20124;-64
2023/04/19 02:24:50;;;;;;;20.63;16.88;;;10.70;42.30;;;;;;5042961;28;20469;-64
2023/04/19 02:27:16;;;;;;;24.10;17.90;;;10.70;42.10;;;;;;5059278;28;20398;-64
2023/04/19 02:29:42;;;;;;;23.60;17.83;;;10.80;40.00;;;;;;5026275;28;20064;-64
2023/04/19 02:32:07;;;;;;;21.17;17.77;;;10.80;36.00;;;;;;5059988;28;20033;-63
2023/04/19 02:34:34;;;;;;;22.25;18.42;;;10.90;35.20;;;;;;5059983;28;20107;-64
2023/04/19 02:37:01;;;;;;;20.10;17.27;;;10.90;34.20;;;;;;5025992;28;20032;-64
2023/04/19 02:39:27;;;;;;;20.75;17.50;;;10.90;35.80;;;;;;5010045;28;20048;-64
2023/04/19 02:41:54;;;;;;;20.15;17.05;;;11.00;40.10;;;;;;5042516;28;20036;-64
2023/04/19 02:44:20;;;;;;;20.08;17.50;;;11.00;36.00;;;;;;5025963;28;20099;-65
2023/04/19 02:46:50;;;;;;;19.60;17.25;;;11.00;35.50;;;;;;5042507;28;20375;-64
2023/04/19 02:49:16;;;;;;;22.38;18.00;;;11.10;34.10;;;;;;5060272;28;20122;-65
2023/04/19 02:51:42;;;;;;;22.67;17.67;;;11.20;33.20;;;;;;5025710;28;20025;-65
2023/04/19 02:54:11;;;;;;;22.67;17.05;;;11.20;32.50;;;;;;5025896;28;20131;-65
2023/04/19 02:56:37;;;;;;;21.75;17.42;;;11.30;33.10;;;;;;5042080;28;20036;-65
2023/04/19 02:59:03;;;;;;;21.38;16.67;;;11.40;29.40;;;;;;5025585;28;20039;-65
2023/04/19 03:01:30;;;;;;;20.52;17.30;;;11.30;30.10;;;;;;5041956;28;20067;-65
2023/04/19 03:03:57;;;;;;;20.60;17.20;;;11.40;28.40;;;;;;5041927;28;20020;-65
2023/04/19 03:06:25;;;;;;;19.90;17.10;;;11.40;28.10;;;;;;5041072;28;20028;-66
2023/04/19 03:08:50;;;;;;;21.45;17.23;;;11.30;29.60;;;;;;5059360;28;20364;-65
2023/04/19 03:11:18;;;;;;;19.23;16.02;;;11.20;36.20;;;;;;5025597;28;20337;-64
2023/04/19 03:13:44;;;;;;;20.55;16.25;;;11.20;34.50;;;;;;5041847;28;20098;-64
2023/04/19 03:16:11;;;;;;;19.92;16.40;;;11.30;34.00;;;;;;5025352;28;20060;-64
2023/04/19 03:18:38;;;;;;;22.63;17.38;;;11.40;32.10;;;;;;5025352;28;20401;-63
2023/04/19 03:21:08;;;;;;;20.58;17.10;;;11.40;29.70;;;;;;5025515;28;20112;-64
2023/04/19 03:23:43;;;;;;;19.67;16.75;;;11.40;28.40;;;;;;5027024;28;20025;-64
2023/04/19 03:26:09;;;;;;;22.55;17.30;;;11.40;27.60;;;;;;5041768;28;20120;-64
2023/04/19 03:28:43;;;;;;;19.88;16.70;;;11.40;32.40;;;;;;5041605;28;20116;-64
2023/04/19 03:31:14;;;;;;;19.45;16.33;;;11.30;34.60;;;;;;5059516;28;20041;-64
2023/04/19 03:33:40;;;;;;;19.65;16.42;;;11.20;38.00;;;;;;5025173;28;20029;-64
2023/04/19 03:36:07;;;;;;;23.10;18.20;;;11.20;41.40;;;;;;5041407;28;20132;-63
2023/04/19 03:38:35;;;;;;;22.63;17.75;;;11.10;42.50;;;;;;5041340;28;20410;-63
2023/04/19 03:41:01;;;;;;;23.30;17.80;;;11.10;48.40;;;;;;5025113;28;20106;-64
2023/04/19 03:43:31;;;;;;;21.50;17.23;;;11.10;46.00;;;;;;5058134;28;20468;-64
2023/04/19 03:45:58;;;;;;;22.05;17.33;;;11.10;48.60;;;;;;5041229;28;20170;-64
2023/04/19 03:48:23;;;;;;;23.65;17.83;;;11.10;48.50;;;;;;5041468;28;20053;-65
2023/04/19 03:50:49;;;;;;;22.45;17.50;;;11.10;48.80;;;;;;5024782;28;20033;-65
2023/04/19 03:53:17;;;;;;;20.55;17.67;;;11.00;52.20;;;;;;5008941;28;20037;-64
2023/04/19 03:55:44;;;;;;;22.40;18.33;;;11.20;44.20;;;;;;5041064;28;20025;-63
2023/04/19 03:58:10;;;;;;;21.83;17.73;;;11.20;46.50;;;;;;5024523;28;20048;-64
2023/04/19 04:00:48;;;;;;;23.17;17.85;;;11.20;51.60;;;;;;5042620;28;20098;-64
2023/04/19 04:03:14;;;;;;;24.00;17.80;;;11.20;50.80;;;;;;5024459;28;20033;-64
2023/04/19 04:05:40;;;;;;;25.13;18.45;;;11.20;48.80;;;;;;5024463;28;20037;-64
2023/04/19 04:08:06;;;;;;;22.48;17.92;;;11.30;48.10;;;;;;5040773;28;20021;-64
2023/04/19 04:10:32;;;;;;;24.55;18.85;;;11.40;45.90;;;;;;5008080;28;20124;-64
2023/04/19 04:12:58;;;;;;;21.98;18.33;;;11.30;48.30;;;;;;5024330;28;20094;-63
2023/04/19 04:15:32;;;;;;;22.20;17.83;;;11.30;48.80;;;;;;5040640;28;20126;-64
2023/04/19 04:17:58;;;;;;;21.60;17.35;;;11.40;46.70;;;;;;5040722;28;20040;-64
2023/04/19 04:20:25;;;;;;;21.60;17.77;;;11.30;46.30;;;;;;5024270;28;20150;-64
2023/04/19 04:22:56;;;;;;;22.27;17.80;;;11.40;46.40;;;;;;5040594;28;20052;-64
2023/04/19 04:25:23;;;;;;;22.08;18.08;;;11.20;48.10;;;;;;5057354;28;20117;-64
2023/04/19 04:27:53;;;;;;;25.38;18.42;;;11.20;51.10;;;;;;5040464;28;20083;-64
2023/04/19 04:30:22;;;;;;;24.30;18.85;;;11.00;54.60;;;;;;5057895;28;20389;-63
2023/04/19 04:32:50;;;;;;;23.23;18.52;;;10.80;61.00;;;;;;5023821;28;20046;-64
2023/04/19 04:35:16;;;;;;;24.35;18.40;;;10.70;66.50;;;;;;5056924;28;20032;-63
2023/04/19 04:37:49;;;;;;;27.67;19.48;;;10.60;69.10;;;;;;5025139;28;20033;-63
2023/04/19 04:40:15;;;;;;;23.38;18.40;;;10.60;70.80;;;;;;5057613;28;20401;-65
2023/04/19 04:42:41;;;;;;;26.05;18.88;;;10.50;73.10;;;;;;5040161;28;20125;-64
2023/04/19 04:45:09;;;;;;;23.45;18.63;;;10.50;75.10;;;;;;5024073;28;20033;-63
2023/04/19 04:47:37;;;;;;;24.83;18.42;;;10.50;76.60;;;;;;5008033;28;20028;-64
2023/04/19 04:50:06;;;;;;;26.77;19.35;;;10.50;77.00;;;;;;5039912;28;20029;-63
2023/04/19 04:52:32;;;;;;;25.63;18.73;;;10.50;80.30;;;;;;5040057;28;20338;-64
2023/04/19 04:55:31;;;;;;;25.13;19.52;;;10.50;78.60;;;;;;5047483;28;20048;-63
2023/04/19 04:57:57;;;;;;;26.23;19.35;;;10.50;80.30;;;;;;5039917;28;20036;-63
2023/04/19 05:00:32;;;;;;;23.65;18.98;;;10.40;81.00;;;;;;5040036;28;20033;-63
2023/04/19 05:03:02;;;;;;;24.50;18.85;;;10.40;83.70;;;;;;5039669;28;20128;-64
2023/04/19 05:05:29;;;;;;;24.33;19.40;;;10.40;83.40;;;;;;5039683;28;20029;-64
2023/04/19 05:07:55;;;;;;;24.02;19.15;;;10.40;84.30;;;;;;5039478;28;20029;-65
2023/04/19 05:10:21;;;;;;;26.80;18.95;;;10.40;84.70;;;;;;5039676;28;20040;-65
2023/04/19 05:12:47;;;;;;;25.17;20.25;;;10.40;84.20;;;;;;5023206;28;20040;-63
2023/04/19 05:15:13;;;;;;;24.52;18.45;;;10.50;82.40;;;;;;5022960;28;20283;-63
2023/04/19 05:17:44;;;;;;;25.23;19.65;;;10.50;82.40;;;;;;5023823;28;20032;-63
2023/04/19 05:20:12;;;;;;;25.77;19.58;;;10.50;82.10;;;;;;5056209;28;20037;-67
2023/04/19 05:22:40;;;;;;;25.45;19.45;;;10.50;81.30;;;;;;5023386;28;20327;-63
2023/04/19 05:25:09;;;;;;;29.05;20.00;;;10.40;83.90;;;;;;5023252;28;20025;-64
2023/04/19 05:27:35;;;;;;;24.55;19.58;;;10.40;84.10;;;;;;5039719;28;20102;-64
2023/04/19 05:30:02;;;;;;;23.02;18.92;;;10.50;84.30;;;;;;5022913;28;20086;-65
2023/04/19 05:32:28;;;;;;;25.25;18.95;;;10.50;85.00;;;;;;5022984;28;20036;-64
2023/04/19 05:34:56;;;;;;;25.67;18.67;;;10.50;83.00;;;;;;5023357;28;20044;-64
2023/04/19 05:37:25;;;;;;;25.25;19.05;;;10.70;82.50;;;;;;5039300;28;20314;-65
2023/04/19 05:39:51;;;;;;;27.25;18.92;;;10.70;83.70;;;;;;5039348;28;20024;-65
2023/04/19 05:42:17;;;;;;;26.55;18.40;;;10.80;83.80;;;;;;5039453;28;20040;-65
2023/04/19 05:44:43;;;;;;;24.17;18.00;;;10.90;82.10;;;;;;5039471;28;20298;-67
2023/04/19 05:47:10;;;;;;;23.88;17.45;;;10.90;78.10;;;;;;5023240;28;20037;-64
2023/04/19 05:49:59;;;;;;;23.85;16.83;;;10.90;81.70;;;;;;5034620;28;20406;-64
2023/04/19 05:52:35;;;;;;;22.33;17.48;;;10.80;84.50;;;;;;5039572;28;20124;-64
2023/04/19 05:55:03;;;;;;;20.50;17.13;;;10.90;82.70;;;;;;5039177;28;20094;-64
2023/04/19 05:57:29;;;;;;;22.50;17.00;;;11.00;81.20;;;;;;5022976;28;20116;-64
2023/04/19 05:59:55;;;;;;;20.02;16.13;;;11.20;75.40;;;;;;5055745;28;20033;-64
2023/04/19 06:02:24;;;;;;;19.58;15.77;;;11.20;74.10;;;;;;5039121;28;20029;-63
2023/04/19 06:04:51;;;;;;;24.30;15.70;;;11.10;75.20;;;;;;5039123;28;20033;-66
2023/04/19 06:07:17;;;;;;;20.70;16.17;;;11.30;76.20;;;;;;5039264;28;20104;-65
2023/04/19 06:09:42;;;;;;;17.73;14.73;;;11.50;68.40;;;;;;5056405;28;20285;-65
2023/04/19 06:12:09;;;;;;;21.38;15.50;;;11.60;61.30;;;;;;5022590;28;20102;-65
2023/04/19 06:14:35;;;;;;;18.45;14.85;;;11.70;55.60;;;;;;5039097;28;20033;-65
2023/04/19 06:17:01;;;;;;;20.58;14.30;;;11.60;57.70;;;;;;5038796;28;20055;-64
2023/04/19 06:19:26;;;;;;;20.00;15.07;;;11.70;55.00;;;;;;5022733;28;20179;-64
2023/04/19 06:21:52;;;;;;;16.08;14.10;;;11.80;53.60;;;;;;5056291;28;20107;-64
2023/04/19 06:24:18;;;;;;;18.13;14.15;;;11.70;55.00;;;;;;5022449;28;20033;-64
2023/04/19 06:26:46;;;;;;;17.83;14.20;;;11.80;52.70;;;;;;5039005;28;20033;-63
2023/04/19 06:29:12;;;;;;;17.15;13.75;;;11.80;52.00;;;;;;5039329;28;20041;-64
2023/04/19 06:31:38;;;;;;;15.80;13.15;;;11.80;51.60;;;;;;5038992;28;20036;-64
2023/04/19 06:34:04;;;;;;;16.90;13.98;;;11.90;53.60;;;;;;5022537;28;20049;-64
2023/04/19 06:36:29;;;;;;;17.02;13.82;;;12.00;49.70;;;;;;5055414;28;20444;-64
2023/04/19 06:38:55;;;;;;;21.10;14.77;;;12.00;50.00;;;;;;5056105;28;20037;-64
2023/04/19 06:41:21;;;;;;;19.95;13.45;;;11.90;53.40;;;;;;5024514;28;20079;-62
2023/04/19 06:43:47;;;;;;;17.25;13.13;;;11.80;55.60;;;;;;5042558;28;20036;-62
2023/04/19 06:46:14;;;;;;;18.50;13.15;;;12.00;53.20;;;;;;5025920;28;20126;-62
2023/04/19 06:48:40;;;;;;;17.63;13.27;;;12.10;48.70;;;;;;5059568;28;20045;-64
2023/04/19 06:51:06;;;;;;;14.45;11.95;;;12.20;43.30;;;;;;5059589;28;20124;-63
2023/04/19 06:53:33;;;;;;;17.13;13.63;;;12.30;42.90;;;;;;5025772;28;20075;-63
2023/04/19 06:56:00;;;;;;;18.55;13.50;;;12.30;38.10;;;;;;5060089;28;20108;-63
2023/04/19 06:58:27;;;;;;;17.30;13.05;;;12.30;37.30;;;;;;5059342;28;20029;-62
2023/04/19 07:00:53;;;;;;;17.20;12.75;;;12.40;40.40;;;;;;5059279;28;20033;-63
2023/04/19 07:03:19;;;;;;;16.13;12.48;;;12.30;41.60;;;;;;5059537;28;20279;-64
2023/04/19 07:05:45;;;;;;;18.20;13.20;;;12.20;43.70;;;;;;5059408;28;20122;-64
2023/04/19 07:08:11;;;;;;;14.10;12.52;;;12.30;38.00;;;;;;5059219;28;20025;-64
2023/04/19 07:10:36;;;;;;;15.10;12.38;;;12.30;38.90;;;;;;5025570;28;20112;-64
2023/04/19 07:13:02;;;;;;;17.27;12.55;;;12.30;41.00;;;;;;5041655;28;20040;-62
2023/04/19 07:15:28;;;;;;;15.85;11.60;;;12.50;38.80;;;;;;5025140;28;20437;-63
2023/04/19 07:17:54;;;;;;;16.08;11.77;;;12.60;37.00;;;;;;5025199;28;20059;-63
2023/04/19 07:20:20;;;;;;;16.33;11.18;;;12.70;25.60;;;;;;5042339;28;20103;-63
2023/04/19 07:22:46;;;;;;;14.13;10.90;;;12.90;20.60;;;;;;5041609;28;20305;-63
2023/04/19 07:25:13;;;;;;;15.00;11.13;;;12.90;15.70;;;;;;5042240;28;20110;-62
2023/04/19 07:27:39;;;;;;;13.07;10.00;;;13.00;14.80;;;;;;5025206;28;20033;-63
2023/04/19 07:30:06;;;;;;;15.02;9.82;;;12.90;7.10;;;;;;5008888;28;20029;-63
2023/04/19 07:32:31;;;;;;;14.70;10.10;;;13.10;1.00;;;;;;5041880;28;20040;-64
2023/04/19 07:34:57;;;;;;;11.10;9.63;;;13.10;1.00;;;;;;5058841;28;20028;-64
2023/04/19 07:37:23;;;;;;;13.60;10.23;;;13.10;1.00;;;;;;5041429;28;20040;-65
2023/04/19 07:39:49;;;;;;;12.10;9.57;;;13.10;1.00;;;;;;5041469;28;20120;-63
2023/04/19 07:42:14;;;;;;;9.77;8.77;;;13.10;1.00;;;;;;5024792;28;20070;-64
2023/04/19 07:44:40;;;;;;;16.90;9.57;;;13.00;1.00;;;;;;5041132;28;20033;-64
2023/04/19 07:47:06;;;;;;;9.60;8.35;;;13.10;1.00;;;;;;5038683;28;20445;-64
2023/04/19 07:49:33;;;;;;;11.23;8.65;;;13.30;1.00;;;;;;5047098;28;20033;-63
2023/04/19 07:52:02;;;;;;;11.95;8.05;;;13.30;1.00;;;;;;5041130;28;20048;-63
2023/04/19 07:54:29;;;;;;;9.85;8.18;;;13.20;1.00;;;;;;5040909;28;20095;-62
2023/04/19 07:56:56;;;;;;;8.65;7.70;;;13.10;1.00;;;;;;5040028;28;20135;-65
2023/04/19 07:59:24;;;;;;;9.40;7.13;;;13.10;1.00;;;;;;5056737;28;20067;-64
2023/04/19 08:01:50;;;;;;;8.75;7.60;;;13.20;1.00;;;;;;5024206;28;20040;-64
2023/04/19 08:04:18;;;;;;;9.02;7.85;;;13.30;1.00;;;;;;5040212;28;20147;-64
2023/04/19 08:06:45;;;;;;;10.80;8.52;;;13.30;1.00;;;;;;5040229;28;20106;-63
2023/04/19 08:09:10;;;;;;;9.43;7.80;;;13.50;1.00;;;;;;5040738;28;20069;-64
2023/04/19 08:11:36;;;;;;;8.57;6.72;;;13.40;1.00;;;;;;5058208;28;20068;-64
2023/04/19 08:14:02;;;;;;;9.90;7.32;;;13.50;1.00;;;;;;5040709;28;20045;-64
2023/04/19 08:16:28;;;;;;;9.73;7.72;;;13.60;1.00;;;;;;5007873;28;20041;-64
2023/04/19 08:18:54;;;;;;;7.72;6.93;;;13.70;1.00;;;;;;4991972;28;20033;-62
2023/04/19 08:21:20;;;;;;;9.13;7.65;;;13.80;1.00;;;;;;5040501;28;20036;-65
2023/04/19 08:23:46;;;;;;;10.15;7.60;;;13.80;1.00;;;;;;5040425;28;20027;-65
2023/04/19 08:26:12;;;;;;;8.95;6.80;;;13.90;1.00;;;;;;5040581;28;20094;-65
2023/04/19 08:28:38;;;;;;;8.10;7.30;;;13.80;1.00;;;;;;5040451;28;20306;-63
2023/04/19 08:31:09;;;;;;;9.38;7.13;;;13.80;1.00;;;;;;5024219;28;20037;-64
2023/04/19 08:33:35;;;;;;;8.80;7.47;;;13.80;1.00;;;;;;5057606;28;20029;-63
2023/04/19 08:36:01;;;;;;;9.50;7.63;;;14.00;1.00;;;;;;5040451;28;20133;-65
2023/04/19 08:38:26;;;;;;;10.73;7.55;;;14.20;1.00;;;;;;5023776;28;20060;-64
2023/04/19 08:40:56;;;;;;;8.10;6.72;;;14.40;1.00;;;;;;5040095;28;20283;-62
2023/04/19 08:43:32;;;;;;;9.83;6.90;;;14.50;1.00;;;;;;5040405;28;20114;-64
2023/04/19 08:45:58;;;;;;;8.70;6.85;;;14.30;1.00;;;;;;5040777;28;20021;-64
2023/04/19 08:48:26;;;;;;;7.75;6.60;;;14.40;1.00;;;;;;5040202;28;20044;-65
2023/04/19 08:50:53;;;;;;;7.75;6.45;;;14.60;1.00;;;;;;5057417;28;20394;-63
2023/04/19 08:53:19;;;;;;;10.40;7.30;;;14.80;1.00;;;;;;5057253;28;20433;-63
2023/04/19 08:55:45;;;;;;;9.38;7.22;;;14.60;1.00;;;;;;5023723;28;20045;-64
2023/04/19 08:58:11;;;;;;;8.32;6.82;;;14.50;1.00;;;;;;5040166;28;20060;-64
2023/04/19 09:00:38;;;;;;;8.20;7.15;;;14.50;1.00;;;;;;5057242;28;20055;-64
2023/04/19 09:03:07;;;;;;;8.48;6.55;;;14.70;1.00;;;;;;5056375;28;20078;-64
2023/04/19 09:05:33;;;;;;;10.35;7.22;;;14.80;1.00;;;;;;5039978;28;20035;-64
2023/04/19 09:08:20;;;;;;;9.18;7.03;;;14.90;1.00;;;;;;5039726;28;20033;-64
2023/04/19 09:11:12;;;;;;;8.07;7.25;;;15.00;1.00;;;;;;5057132;28;20033;-64
2023/04/19 09:13:39;;;;;;;7.28;6.50;;;15.20;1.00;;;;;;5035605;28;20041;-64
2023/04/19 09:16:06;;;;;;;11.10;6.75;;;15.30;1.00;;;;;;5056858;28;20120;-64
2023/04/19 09:18:33;;;;;;;7.82;6.68;;;15.40;1.00;;;;;;5039852;28;20136;-64
2023/04/19 09:20:59;;;;;;;9.18;6.65;;;15.50;1.00;;;;;;5056814;28;20028;-65
2023/04/19 09:23:27;;;;;;;6.90;6.13;;;15.70;1.00;;;;;;5023293;28;20037;-64
2023/04/19 09:26:03;;;;;;;7.80;6.78;;;15.60;1.00;;;;;;5056654;28;20044;-64
2023/04/19 09:28:30;;;;;;;6.95;6.30;;;15.60;1.00;;;;;;5023029;28;20158;-63
2023/04/19 09:30:57;;;;;;;7.45;5.97;;;15.50;1.00;;;;;;5039614;28;20485;-63
2023/04/19 09:33:39;;;;;;;9.77;6.63;;;15.30;1.00;;;;;;5023058;28;20025;-65
2023/04/19 09:36:07;;;;;;;6.85;5.90;;;15.40;1.00;;;;;;5057321;28;20167;-64
2023/04/19 09:38:49;;;;;;;9.00;6.65;;;15.60;1.00;;;;;;5056705;28;20029;-64
2023/04/19 09:41:19;;;;;;;9.38;6.60;;;15.60;1.00;;;;;;5056705;28;20040;-66
2023/04/19 09:43:45;;;;;;;7.35;6.25;;;15.60;1.00;;;;;;5056814;28;20044;-64
2023/04/19 09:46:36;;;;;;;8.13;6.40;;;15.80;1.00;;;;;;5056690;28;20033;-63
2023/04/19 09:49:25;;;;;;;8.77;6.40;;;15.80;1.00;;;;;;5056604;28;20393;-65
2023/04/19 09:51:56;;;;;;;7.50;6.70;;;16.00;1.00;;;;;;5056630;28;20037;-64
2023/04/19 09:54:24;;;;;;;9.80;7.43;;;15.90;1.00;;;;;;5039479;28;20124;-65
2023/04/19 09:56:51;;;;;;;9.25;7.00;;;15.80;1.00;;;;;;5056632;28;20386;-64
2023/04/19 09:59:17;;;;;;;7.75;6.97;;;15.90;1.00;;;;;;5022931;28;20044;-64
2023/04/19 10:01:45;;;;;;;7.90;6.88;;;16.00;1.00;;;;;;5056362;28;20041;-64
2023/04/19 10:04:12;;;;;;;9.00;7.20;;;16.20;1.00;;;;;;5039114;28;20017;-64
2023/04/19 10:06:40;;;;;;;7.50;6.80;;;16.10;99.90;;;;;;5056436;28;20377;-64
2023/04/19 10:09:07;;;;;;;8.38;6.47;;;16.30;99.90;;;;;;5038954;28;20345;-64
2023/04/19 10:11:37;;;;;;;7.90;7.10;;;16.50;99.90;;;;;;5039602;28;20211;-63
2023/04/19 10:14:06;;;;;;;8.25;7.00;;;16.60;99.90;;;;;;5039885;28;20100;-62
2023/04/19 10:16:32;;;;;;;7.70;6.90;;;16.70;99.90;;;;;;5060067;28;20132;-62
2023/04/19 10:19:01;;;;;;;9.70;6.75;;;16.50;99.90;;;;;;5026776;28;20060;-62
2023/04/19 10:21:27;;;;;;;8.18;6.53;;;16.70;99.90;;;;;;5042778;28;20043;-63
2023/04/19 10:23:55;;;;;;;11.45;7.20;;;17.00;92.70;;;;;;5026255;28;20480;-61
2023/04/19 10:26:21;;;;;;;11.45;6.90;;;17.10;99.90;;;;;;5042634;28;20025;-66
2023/04/19 10:28:47;;;;;;;31.60;7.72;;;16.80;5.20;;;;;;5009603;28;20032;-66
2023/04/19 10:31:14;;;;;;;7.45;6.40;;;16.80;99.90;;;;;;5059781;28;20051;-62
2023/04/19 10:33:40;;;;;;;8.60;6.60;;;17.00;1.00;;;;;;5059676;28;20025;-63
2023/04/19 10:36:16;;;;;;;8.55;7.00;;;17.30;1.00;;;;;;5059798;28;20124;-62
2023/04/19 10:38:46;;;;;;;8.27;6.60;;;17.70;1.00;;;;;;5042313;28;20318;-62
2023/04/19 10:41:17;;;;;;;12.65;7.07;;;17.60;1.00;;;;;;5059612;28;20093;-62
2023/04/19 10:44:07;;;;;;;7.32;6.13;;;17.70;1.00;;;;;;5059981;28;20089;-61
2023/04/19 10:46:34;;;;;;;8.95;6.63;;;18.20;99.90;;;;;;5025787;28;20090;-61
2023/04/19 10:49:01;;;;;;;8.48;6.43;;;19.10;1.00;;;;;;5059582;28;20093;-63
2023/04/19 10:51:32;;;;;;;8.70;6.25;;;19.20;1.00;;;;;;5059504;28;20305;-62
2023/04/19 10:54:00;;;;;;;6.95;6.28;;;19.60;99.90;;;;;;5025615;28;20036;-62
2023/04/19 10:56:32;;;;;;;6.88;6.05;;;20.20;1.00;;;;;;5042214;28;20037;-63
2023/04/19 10:59:06;;;;;;;7.75;5.68;;;21.00;99.90;;;;;;5041911;28;20114;-62
2023/04/19 11:01:51;;;;;;;6.47;5.97;;;21.80;99.90;;;;;;5041718;28;20028;-63
2023/04/19 11:04:29;;;;;;;6.75;5.30;;;22.00;62.20;;;;;;5059164;28;20056;-64
2023/04/19 11:06:55;;;;;;;7.30;5.50;;;22.20;99.90;;;;;;5059229;28;20089;-63
2023/04/19 11:09:30;;;;;;;7.03;5.45;;;22.60;66.90;;;;;;5059036;28;20044;-63
2023/04/19 11:12:09;;;;;;;7.38;5.15;;;23.50;1.00;;;;;;5059268;28;20067;-63
2023/04/19 11:14:43;;;;;;;12.10;5.32;;;23.10;99.90;;;;;;5059313;28;20029;-64
2023/04/19 11:17:18;;;;;;;6.28;5.20;;;23.00;1.00;;;;;;5038985;28;20037;-62
2023/04/19 11:20:01;;;;;;;8.50;5.68;;;22.70;99.90;;;;;;5038986;28;20091;-63
2023/04/19 11:22:34;;;;;;;6.85;5.05;;;23.30;99.90;;;;;;5038135;28;20048;-64
2023/04/19 11:25:15;;;;;;;6.70;5.38;;;23.50;99.90;;;;;;5038120;28;20029;-61
2023/04/19 11:27:42;;;;;;;5.95;4.45;;;23.10;99.30;;;;;;5037452;28;20057;-63
2023/04/19 11:30:16;;;;;;;7.20;4.60;;;23.00;99.90;;;;;;5021623;28;20041;-61
2023/04/19 11:32:55;;;;;;;5.97;4.90;;;22.60;8.70;;;;;;5038874;28;20323;-61
2023/04/19 11:35:24;;;;;;;5.10;4.40;;;22.00;32.20;;;;;;5038136;28;20353;-60
2023/04/19 11:37:50;;;;;;;4.88;4.07;;;21.80;2.60;;;;;;5038044;28;20288;-64
2023/04/19 11:40:18;;;;;;;8.02;4.20;;;22.90;89.00;;;;;;5038091;28;20061;-64
2023/04/19 11:42:44;;;;;;;5.30;4.25;;;23.60;1.00;;;;;;5038857;28;20037;-64
2023/04/19 11:45:11;;;;;;;5.90;4.10;;;24.90;1.00;;;;;;5037824;28;20091;-63
2023/04/19 11:47:50;;;;;;;7.32;3.88;;;25.70;1.00;;;;;;5037838;28;20348;-63
2023/04/19 11:50:34;;;;;;;4.07;3.38;;;25.20;1.00;;;;;;5037680;28;20030;-63
2023/04/19 11:53:10;;;;;;;7.38;3.38;;;24.80;1.00;;;;;;5038459;28;20058;-62
2023/04/19 11:55:36;;;;;;;7.65;3.50;;;24.90;1.00;;;;;;5038601;28;20350;-62
2023/04/19 11:58:01;;;;;;;6.20;3.25;;;23.90;1.00;;;;;;5038360;28;20064;-63
2023/04/19 12:00:29;;;;;;;18.00;3.97;;;24.00;1.00;;;;;;5038401;28;20116;-63
2023/04/19 12:02:55;;;;;;;5.78;3.33;;;24.50;1.00;;;;;;5037558;28;20057;-61
2023/04/19 12:05:22;;;;;;;6.32;3.42;;;24.90;1.00;;;;;;5038267;28;20033;-61
2023/04/19 12:08:04;;;;;;;5.32;3.05;;;24.40;1.00;;;;;;5038236;28;20021;-62
2023/04/19 12:10:30;;;;;;;3.95;3.00;;;23.90;1.00;;;;;;5038195;28;20045;-62
2023/04/19 12:12:56;;;;;;;9.18;3.58;;;25.00;1.00;;;;;;5038100;28;20425;-64
2023/04/19 12:15:23;;;;;;;7.60;3.17;;;24.30;1.00;;;;;;5040480;28;20045;-63
2023/04/19 12:17:59;;;;;;;6.30;2.95;;;24.30;1.00;;;;;;5057935;28;20060;-63
2023/04/19 12:20:32;;;;;;;8.20;3.30;;;24.60;1.00;;;;;;5041314;28;20416;-63
2023/04/19 12:22:59;;;;;;;6.55;3.03;;;25.40;99.90;;;;;;5040184;28;20087;-62
2023/04/19 12:25:32;;;;;;;7.20;3.72;;;25.80;99.90;;;;;;5040479;28;20115;-62
2023/04/19 12:27:59;;;;;;;4.47;3.00;;;24.80;99.90;;;;;;5040261;28;20387;-63
2023/04/19 12:30:26;;;;;;;7.75;2.90;;;24.30;99.90;;;;;;5057548;28;20036;-64
2023/04/19 12:32:54;;;;;;;4.43;2.60;;;23.70;99.90;;;;;;5039944;28;20385;-63
2023/04/19 12:35:25;;;;;;;3.53;2.45;;;23.60;99.90;;;;;;5057457;28;20048;-63
2023/04/19 12:37:56;;;;;;;24.15;3.83;;;24.00;99.90;;;;;;5056385;28;20033;-63
2023/04/19 12:40:23;;;;;;;3.33;2.40;;;24.20;99.90;;;;;;5039884;28;20033;-63
2023/04/19 12:42:49;;;;;;;4.40;2.50;;;24.90;99.90;;;;;;5039660;28;20025;-63